createdAt,value
2023-05-05T00:01:35.620Z,99102.47
2023-05-05T00:04:02.573Z,99098.13
2023-05-05T00:06:29.303Z,99098.13
2023-05-05T00:08:56.396Z,99096.06
2023-05-05T00:11:23.188Z,99099.53
2023-05-05T00:13:49.925Z,99103.22
2023-05-05T00:16:16.590Z,99095.63
2023-05-05T00:18:44.083Z,99090.78
2023-05-05T00:21:10.786Z,99093.66
2023-05-05T00:23:37.474Z,99086.91
2023-05-05T00:26:04.145Z,99085.22
2023-05-05T00:28:30.793Z,99088.00
2023-05-05T00:30:57.584Z,99091.47
2023-05-05T00:33:24.570Z,99084.59
2023-05-05T00:35:51.727Z,99083.75
2023-05-05T00:38:18.483Z,99082.16
2023-05-05T00:40:45.154Z,99078.41
2023-05-05T00:43:13.011Z,99077.91
2023-05-05T00:45:42.849Z,99074.53
2023-05-05T00:48:09.885Z,99070.31
2023-05-05T00:50:37.488Z,99064.41
2023-05-05T00:53:06.831Z,99071.59
2023-05-05T00:55:35.094Z,99066.56
2023-05-05T00:58:04.078Z,99064.97
2023-05-05T01:00:31.515Z,99057.59
2023-05-05T01:02:59.047Z,99062.34
2023-05-05T01:05:28.008Z,99060.91
2023-05-05T01:08:03.422Z,99059.41
2023-05-05T01:10:46.988Z,99055.22
2023-05-05T01:13:37.462Z,99046.56
2023-05-05T01:16:15.468Z,99052.91
2023-05-05T01:19:14.563Z,99049.72
2023-05-05T01:21:49.586Z,99048.28
2023-05-05T01:24:48.053Z,99046.06
2023-05-05T01:27:34.241Z,99053.38
2023-05-05T01:30:01.118Z,99045.88
2023-05-05T01:32:31.743Z,99047.88
2023-05-05T01:35:10.144Z,99043.53
2023-05-05T01:37:48.786Z,99045.34
2023-05-05T01:40:20.143Z,99047.25
2023-05-05T01:42:48.571Z,99043.88
2023-05-05T01:45:17.404Z,99046.59
2023-05-05T01:47:45.544Z,99051.28
2023-05-05T01:50:13.869Z,99056.63
2023-05-05T01:52:42.624Z,99050.75
2023-05-05T01:55:11.173Z,99056.03
2023-05-05T01:57:41.312Z,99056.13
2023-05-05T02:00:09.860Z,99051.78
2023-05-05T02:02:39.877Z,99052.53
2023-05-05T02:05:07.333Z,99057.81
2023-05-05T02:07:35.867Z,99063.28
2023-05-05T02:10:04.956Z,99047.69
2023-05-05T02:12:32.452Z,99038.84
2023-05-05T02:15:01.683Z,99045.78
2023-05-05T02:17:30.092Z,99034.38
2023-05-05T02:19:59.258Z,99032.06
2023-05-05T02:22:25.946Z,99036.41
2023-05-05T02:24:53.114Z,99041.66
2023-05-05T02:27:21.867Z,99036.50
2023-05-05T02:29:56.778Z,99042.63
2023-05-05T02:32:39.836Z,99034.94
2023-05-05T02:35:20.063Z,99032.41
2023-05-05T02:38:09.798Z,99032.50
2023-05-05T02:40:38.626Z,99036.91
2023-05-05T02:43:08.526Z,99031.78
2023-05-05T02:45:35.335Z,99032.91
2023-05-05T02:48:04.214Z,99023.31
2023-05-05T02:50:31.904Z,99030.50
2023-05-05T02:53:00.325Z,99022.78
2023-05-05T02:55:35.031Z,99023.88
2023-05-05T02:58:06.652Z,99023.97
2023-05-05T03:00:36.946Z,99030.38
2023-05-05T03:03:06.945Z,99028.72
2023-05-05T03:05:45.913Z,99022.69
2023-05-05T03:08:30.232Z,99020.47
2023-05-05T03:11:04.687Z,99025.75
2023-05-05T03:13:32.601Z,99025.75
2023-05-05T03:16:04.609Z,99013.50
2023-05-05T03:18:32.060Z,99020.47
2023-05-05T03:21:02.433Z,99020.47
2023-05-05T03:23:29.131Z,99018.78
2023-05-05T03:25:55.814Z,99024.81
2023-05-05T03:28:22.463Z,99029.31
2023-05-05T03:30:49.144Z,99022.16
2023-05-05T03:33:16.090Z,99027.31
2023-05-05T03:35:42.766Z,99022.16
2023-05-05T03:38:09.434Z,99014.97
2023-05-05T03:40:43.398Z,99010.69
2023-05-05T03:43:11.430Z,99016.03
2023-05-05T03:45:38.752Z,99011.63
2023-05-05T03:48:06.186Z,99014.25
2023-05-05T03:50:32.861Z,99019.63
2023-05-05T03:52:59.483Z,99016.03
2023-05-05T03:55:26.109Z,99016.03
2023-05-05T03:57:52.768Z,99019.63
2023-05-05T04:00:19.660Z,99017.09
2023-05-05T04:02:46.456Z,99022.34
2023-05-05T04:05:13.081Z,99009.69
2023-05-05T04:07:39.707Z,99006.97
2023-05-05T04:10:07.203Z,99012.22
2023-05-05T04:12:34.099Z,99015.81
2023-05-05T04:15:00.742Z,99007.19
2023-05-05T04:17:27.381Z,99011.28
2023-05-05T04:19:54.138Z,99016.56
2023-05-05T04:22:20.788Z,99021.06
2023-05-05T04:24:47.594Z,99026.34
2023-05-05T04:27:14.159Z,99030.78
2023-05-05T04:29:40.812Z,99024.78
2023-05-05T04:32:07.397Z,99020.66
2023-05-05T04:34:34.003Z,99029.97
2023-05-05T04:37:00.686Z,99031.84
2023-05-05T04:39:27.304Z,99031.84
2023-05-05T04:41:53.857Z,99023.94
2023-05-05T04:44:20.769Z,99028.25
2023-05-05T04:46:47.403Z,99022.78
2023-05-05T04:49:14.098Z,99025.09
2023-05-05T04:51:43.801Z,99018.47
2023-05-05T04:54:10.464Z,99029.75
2023-05-05T04:56:37.204Z,99023.81
2023-05-05T04:59:04.019Z,99027.13
2023-05-05T05:01:31.751Z,99034.59
2023-05-05T05:03:58.721Z,99036.50
2023-05-05T05:06:25.524Z,99036.50
2023-05-05T05:08:52.112Z,99044.91
2023-05-05T05:11:18.704Z,99044.81
2023-05-05T05:13:45.326Z,99035.06
2023-05-05T05:16:12.035Z,99033.28
2023-05-05T05:18:38.684Z,99048.28
2023-05-05T05:21:05.617Z,99047.63
2023-05-05T05:23:32.352Z,99046.34
2023-05-05T05:25:58.998Z,99042.31
2023-05-05T05:28:25.869Z,99043.16
2023-05-05T05:30:52.755Z,99037.56
2023-05-05T05:33:19.912Z,99035.06
2023-05-05T05:35:46.449Z,99034.13
2023-05-05T05:38:13.083Z,99030.69
2023-05-05T05:40:39.750Z,99032.03
2023-05-05T05:43:06.611Z,99028.00
2023-05-05T05:45:33.215Z,99031.03
2023-05-05T05:47:59.900Z,99033.13
2023-05-05T05:50:28.603Z,99035.31
2023-05-05T05:52:55.755Z,99045.41
2023-05-05T05:55:22.447Z,99055.94
2023-05-05T05:57:49.178Z,99043.84
2023-05-05T06:00:16.117Z,99052.66
2023-05-05T06:02:42.982Z,99054.47
2023-05-05T06:05:10.571Z,99054.28
2023-05-05T06:07:37.165Z,99062.72
2023-05-05T06:10:18.631Z,99048.41
2023-05-05T06:12:51.282Z,99046.13
2023-05-05T06:15:17.942Z,99041.34
2023-05-05T06:17:44.532Z,99044.53
2023-05-05T06:20:11.700Z,99038.63
2023-05-05T06:22:38.280Z,99029.91
2023-05-05T06:25:05.222Z,99030.09
2023-05-05T06:27:31.857Z,99037.25
2023-05-05T06:29:58.482Z,99034.03
2023-05-05T06:32:25.103Z,99040.56
2023-05-05T06:34:51.723Z,99042.50
2023-05-05T06:37:18.381Z,99040.22
2023-05-05T06:39:45.054Z,99031.38
2023-05-05T06:42:11.798Z,99029.63
2023-05-05T06:44:38.472Z,99031.22
2023-05-05T06:47:05.166Z,99028.53
2023-05-05T06:49:31.835Z,99028.38
2023-05-05T06:51:58.501Z,99024.34
2023-05-05T06:54:25.187Z,99012.56
2023-05-05T06:56:51.748Z,99012.53
2023-05-05T06:59:18.525Z,99013.88
2023-05-05T07:01:45.257Z,99009.03
2023-05-05T07:04:12.144Z,99015.03
2023-05-05T07:06:38.938Z,99014.50
2023-05-05T07:09:06.054Z,99014.69
2023-05-05T07:11:32.712Z,99017.53
2023-05-05T07:13:59.346Z,99003.22
2023-05-05T07:16:27.237Z,98996.09
2023-05-05T07:18:53.948Z,98987.81
2023-05-05T07:21:20.648Z,98984.94
2023-05-05T07:23:47.850Z,98989.06
2023-05-05T07:26:15.266Z,98985.91
2023-05-05T07:28:43.209Z,98980.91
2023-05-05T07:31:09.929Z,98976.41
2023-05-05T07:33:36.641Z,98977.34
2023-05-05T07:36:03.662Z,98977.53
2023-05-05T07:38:30.356Z,98976.53
2023-05-05T07:40:56.963Z,98978.13
2023-05-05T07:43:23.595Z,98973.38
2023-05-05T07:45:50.202Z,98970.97
2023-05-05T07:48:16.955Z,98970.81
2023-05-05T07:50:43.559Z,98961.94
2023-05-05T07:53:14.365Z,98961.94
2023-05-05T07:55:41.955Z,98970.53
2023-05-05T07:58:10.847Z,98964.63
2023-05-05T08:00:38.285Z,98969.63
2023-05-05T08:03:05.234Z,98974.69
2023-05-05T08:05:32.109Z,98971.97
2023-05-05T08:07:58.906Z,98965.84
2023-05-05T08:10:25.534Z,98970.97
2023-05-05T08:12:52.487Z,98960.22
2023-05-05T08:15:19.260Z,98970.97
2023-05-05T08:17:50.155Z,98966.28
2023-05-05T08:20:18.278Z,98964.88
2023-05-05T08:22:45.678Z,98969.25
2023-05-05T08:25:13.356Z,98972.88
2023-05-05T08:27:41.420Z,98968.94
2023-05-05T08:30:09.496Z,98973.41
2023-05-05T08:32:36.226Z,98972.41
2023-05-05T08:35:03.591Z,98965.91
2023-05-05T08:37:30.626Z,98967.00
2023-05-05T08:39:58.219Z,98972.88
2023-05-05T08:42:36.049Z,98976.19
2023-05-05T08:45:04.824Z,98969.91
2023-05-05T08:47:32.239Z,98978.59
2023-05-05T08:49:59.404Z,98969.97
2023-05-05T08:52:31.546Z,98963.94
2023-05-05T08:55:11.922Z,98967.09
2023-05-05T08:57:51.699Z,98956.19
2023-05-05T09:00:19.896Z,98969.91
2023-05-05T09:02:47.273Z,98967.88
2023-05-05T09:05:14.410Z,98960.06
2023-05-05T09:07:44.247Z,98965.63
2023-05-05T09:10:12.489Z,98958.13
2023-05-05T09:12:40.693Z,98962.75
2023-05-05T09:15:09.888Z,98958.41
2023-05-05T09:17:36.948Z,98953.19
2023-05-05T09:20:04.957Z,98963.03
2023-05-05T09:22:37.509Z,98961.41
2023-05-05T09:25:09.995Z,98964.09
2023-05-05T09:27:41.454Z,98965.66
2023-05-05T09:30:09.996Z,98967.56
2023-05-05T09:32:52.366Z,98975.25
2023-05-05T09:35:20.287Z,98971.59
2023-05-05T09:37:47.629Z,98970.78
2023-05-05T09:40:17.836Z,98962.28
2023-05-05T09:42:47.423Z,98965.91
2023-05-05T09:45:20.195Z,98956.59
2023-05-05T09:47:48.228Z,98954.78
2023-05-05T09:50:18.845Z,98954.72
2023-05-05T09:53:02.760Z,98950.91
2023-05-05T09:55:31.514Z,98959.09
2023-05-05T09:58:16.893Z,98964.47
2023-05-05T10:00:43.715Z,98959.00
2023-05-05T10:03:10.663Z,98956.78
2023-05-05T10:05:47.990Z,98961.03
2023-05-05T10:08:14.586Z,98961.53
2023-05-05T10:10:49.715Z,98960.16
2023-05-05T10:13:19.417Z,98948.50
2023-05-05T10:15:47.325Z,98950.50
2023-05-05T10:18:15.165Z,98947.69
2023-05-05T10:20:43.890Z,98947.38
2023-05-05T10:23:14.589Z,98938.78
2023-05-05T10:25:53.079Z,98930.41
2023-05-05T10:28:31.442Z,98931.16
2023-05-05T10:31:00.578Z,98925.06
2023-05-05T10:33:32.347Z,98930.47
2023-05-05T10:36:02.584Z,98925.69
2023-05-05T10:38:33.914Z,98914.13
2023-05-05T10:41:02.263Z,98910.78
2023-05-05T10:43:30.954Z,98903.34
2023-05-05T10:45:59.120Z,98909.06
2023-05-05T10:48:47.111Z,98898.84
2023-05-05T10:51:49.307Z,98902.22
2023-05-05T10:54:30.568Z,98897.63
2023-05-05T10:57:01.361Z,98900.34
2023-05-05T10:59:37.133Z,98891.81
2023-05-05T11:02:28.238Z,98895.09
2023-05-05T11:05:10.102Z,98888.50
2023-05-05T11:07:37.935Z,98885.16
2023-05-05T11:10:06.510Z,98895.13
2023-05-05T11:12:54.058Z,98887.22
2023-05-05T11:15:26.913Z,98884.13
2023-05-05T11:17:54.688Z,98884.34
2023-05-05T11:20:45.363Z,98880.59
2023-05-05T11:23:12.977Z,98881.84
2023-05-05T11:25:44.647Z,98880.19
2023-05-05T11:28:13.783Z,98879.97
2023-05-05T11:30:59.039Z,98878.28
2023-05-05T11:33:26.448Z,98873.50
2023-05-05T11:35:57.324Z,98862.88
2023-05-05T11:38:37.558Z,98866.03
2023-05-05T11:41:17.350Z,98868.53
2023-05-05T11:43:44.228Z,98865.38
2023-05-05T11:46:15.308Z,98862.50
2023-05-05T11:48:49.083Z,98864.28
2023-05-05T11:51:18.999Z,98855.63
2023-05-05T11:53:47.727Z,98847.22
2023-05-05T11:56:19.287Z,98850.63
2023-05-05T11:59:04.920Z,98847.06
2023-05-05T12:01:31.747Z,98845.13
2023-05-05T12:03:58.701Z,98835.38
2023-05-05T12:06:26.908Z,98836.50
2023-05-05T12:08:53.912Z,98838.34
2023-05-05T12:11:21.123Z,98841.44
2023-05-05T12:13:47.813Z,98838.94
2023-05-05T12:16:16.054Z,98827.75
2023-05-05T12:18:43.292Z,98830.94
2023-05-05T12:21:17.932Z,98829.41
2023-05-05T12:23:44.859Z,98832.75
2023-05-05T12:26:28.904Z,98831.31
2023-05-05T12:28:59.420Z,98823.16
2023-05-05T12:31:52.174Z,98817.25
2023-05-05T12:34:19.307Z,98822.28
2023-05-05T12:36:46.493Z,98825.28
2023-05-05T12:39:13.311Z,98824.88
2023-05-05T12:41:40.350Z,98820.28
2023-05-05T12:44:07.223Z,98822.75
2023-05-05T12:46:47.922Z,98831.47
2023-05-05T12:49:15.040Z,98827.09
2023-05-05T12:52:02.090Z,98825.66
2023-05-05T12:54:31.894Z,98830.41
2023-05-05T12:56:58.942Z,98823.16
2023-05-05T12:59:25.648Z,98812.19
2023-05-05T13:01:54.379Z,98817.34
2023-05-05T13:04:23.216Z,98815.69
2023-05-05T13:07:10.055Z,98817.31
2023-05-05T13:09:37.223Z,98820.25
2023-05-05T13:12:04.581Z,98820.03
2023-05-05T13:14:36.386Z,98818.19
2023-05-05T13:17:03.242Z,98816.34
2023-05-05T13:19:30.507Z,98816.16
2023-05-05T13:21:58.568Z,98806.16
2023-05-05T13:24:38.043Z,98800.09
2023-05-05T13:27:09.620Z,98797.78
2023-05-05T13:29:36.439Z,98788.28
2023-05-05T13:32:03.319Z,98785.41
2023-05-05T13:34:30.199Z,98783.88
2023-05-05T13:36:56.961Z,98778.25
2023-05-05T13:39:23.775Z,98773.03
2023-05-05T13:41:50.502Z,98762.69
2023-05-05T13:44:17.165Z,98763.13
2023-05-05T13:46:43.840Z,98757.50
2023-05-05T13:49:11.182Z,98748.81
2023-05-05T13:51:39.067Z,98743.03
2023-05-05T13:54:06.860Z,98734.69
2023-05-05T13:56:34.418Z,98736.34
2023-05-05T13:59:01.280Z,98739.03
2023-05-05T14:01:28.343Z,98744.03
2023-05-05T14:03:57.145Z,98747.56
2023-05-05T14:06:27.935Z,98739.22
2023-05-05T14:08:54.676Z,98746.28
2023-05-05T14:11:21.494Z,98746.06
2023-05-05T14:13:48.224Z,98754.34
2023-05-05T14:16:15.024Z,98767.75
2023-05-05T14:18:41.752Z,98766.78
2023-05-05T14:21:08.713Z,98772.38
2023-05-05T14:23:35.489Z,98775.38
2023-05-05T14:26:02.740Z,98772.88
2023-05-05T14:28:29.566Z,98774.38
2023-05-05T14:30:56.339Z,98771.00
2023-05-05T14:33:23.122Z,98767.34
2023-05-05T14:35:49.827Z,98767.88
2023-05-05T14:38:16.509Z,98770.34
2023-05-05T14:40:43.240Z,98771.72
2023-05-05T14:43:09.906Z,98772.47
2023-05-05T14:45:36.611Z,98777.06
2023-05-05T14:48:03.476Z,98780.66
2023-05-05T14:50:30.371Z,98767.66
2023-05-05T14:52:57.096Z,98771.75
2023-05-05T14:55:25.073Z,98773.09
2023-05-05T14:57:52.102Z,98775.38
2023-05-05T15:00:19.156Z,98774.91
2023-05-05T15:02:48.174Z,98775.09
2023-05-05T15:05:15.106Z,98788.28
2023-05-05T15:07:41.800Z,98791.50
2023-05-05T15:10:08.914Z,98803.47
2023-05-05T15:12:35.746Z,98796.44
2023-05-05T15:15:02.567Z,98806.16
2023-05-05T15:17:30.887Z,98808.25
2023-05-05T15:19:57.957Z,98805.97
2023-05-05T15:22:24.637Z,98808.72
2023-05-05T15:24:51.298Z,98803.03
2023-05-05T15:27:18.639Z,98806.09
2023-05-05T15:29:45.398Z,98808.09
2023-05-05T15:32:12.253Z,98812.56
2023-05-05T15:34:38.977Z,98809.38
2023-05-05T15:37:05.621Z,98804.13
2023-05-05T15:39:32.265Z,98819.53
2023-05-05T15:42:03.705Z,98816.53
2023-05-05T15:44:31.286Z,98816.47
2023-05-05T15:46:58.102Z,98821.59
2023-05-05T15:49:25.017Z,98819.97
2023-05-05T15:51:51.696Z,98821.31
2023-05-05T15:54:18.395Z,98824.13
2023-05-05T15:56:45.188Z,98819.56
2023-05-05T15:59:11.846Z,98817.94
2023-05-05T16:01:38.686Z,98816.25
2023-05-05T16:04:05.571Z,98806.16
2023-05-05T16:06:32.295Z,98817.16
2023-05-05T16:08:58.925Z,98808.22
2023-05-05T16:11:28.550Z,98810.81
2023-05-05T16:13:55.323Z,98809.31
2023-05-05T16:16:22.046Z,98807.25
2023-05-05T16:18:48.838Z,98804.75
2023-05-05T16:21:15.554Z,98804.19
2023-05-05T16:23:42.279Z,98798.38
2023-05-05T16:26:09.067Z,98800.16
2023-05-05T16:28:35.811Z,98788.13
2023-05-05T16:31:02.558Z,98780.53
2023-05-05T16:33:29.594Z,98779.47
2023-05-05T16:35:56.630Z,98772.81
2023-05-05T16:38:23.299Z,98779.81
2023-05-05T16:40:50.013Z,98790.66
2023-05-05T16:43:16.743Z,98786.81
2023-05-05T16:45:43.588Z,98787.81
2023-05-05T16:48:10.538Z,98777.25
2023-05-05T16:50:37.222Z,98765.00
2023-05-05T16:53:03.930Z,98765.84
2023-05-05T16:55:30.712Z,98767.91
2023-05-05T16:57:57.412Z,98768.34
2023-05-05T17:00:24.160Z,98773.25
2023-05-05T17:02:51.023Z,98764.00
2023-05-05T17:05:17.956Z,98776.00
2023-05-05T17:07:44.925Z,98777.69
2023-05-05T17:10:11.574Z,98786.19
2023-05-05T17:12:38.314Z,98781.81
2023-05-05T17:15:05.845Z,98784.78
2023-05-05T17:17:32.519Z,98778.63
2023-05-05T17:19:59.259Z,98779.00
2023-05-05T17:22:26.153Z,98787.72
2023-05-05T17:24:52.797Z,98795.41
2023-05-05T17:27:19.493Z,98817.09
2023-05-05T17:29:46.378Z,98833.53
2023-05-05T17:32:13.047Z,98855.69
2023-05-05T17:34:41.159Z,98862.72
2023-05-05T17:37:09.105Z,98877.28
2023-05-05T17:39:35.864Z,98885.69
2023-05-05T17:42:02.663Z,98892.06
2023-05-05T17:44:29.300Z,98900.44
2023-05-05T17:46:55.893Z,98906.28
2023-05-05T17:49:25.316Z,98899.94
2023-05-05T17:51:52.082Z,98899.94
2023-05-05T17:54:18.722Z,98896.41
2023-05-05T17:56:45.444Z,98890.72
2023-05-05T17:59:12.058Z,98881.53
2023-05-05T18:01:38.863Z,98877.38
2023-05-05T18:04:05.635Z,98881.06
2023-05-05T18:06:32.419Z,98884.03
2023-05-05T18:08:59.328Z,98888.41
2023-05-05T18:11:28.847Z,98885.22
2023-05-05T18:13:56.336Z,98883.56
2023-05-05T18:16:23.003Z,98881.72
2023-05-05T18:18:49.712Z,98880.72
2023-05-05T18:21:16.529Z,98875.53
2023-05-05T18:23:43.205Z,98878.06
2023-05-05T18:26:09.847Z,98875.53
2023-05-05T18:28:37.028Z,98878.38
2023-05-05T18:31:03.767Z,98878.72
2023-05-05T18:33:30.543Z,98875.00
2023-05-05T18:35:57.816Z,98876.34
2023-05-05T18:38:24.815Z,98872.34
2023-05-05T18:40:51.559Z,98875.00
2023-05-05T18:43:18.322Z,98884.53
2023-05-05T18:45:45.349Z,98881.00
2023-05-05T18:48:12.132Z,98886.53
2023-05-05T18:50:39.192Z,98892.38
2023-05-05T18:53:06.266Z,98898.03
2023-05-05T18:55:32.957Z,98898.66
2023-05-05T18:57:59.634Z,98910.53
2023-05-05T19:00:26.403Z,98907.38
2023-05-05T19:02:53.964Z,98905.72
2023-05-05T19:05:20.945Z,98893.69
2023-05-05T19:07:47.872Z,98904.34
2023-05-05T19:10:14.571Z,98906.66
2023-05-05T19:12:41.819Z,98911.50
2023-05-05T19:15:09.213Z,98905.28
2023-05-05T19:17:36.477Z,98903.31
2023-05-05T19:20:03.339Z,98909.78
2023-05-05T19:22:30.059Z,98920.63
2023-05-05T19:24:56.871Z,98933.81
2023-05-05T19:27:23.564Z,98932.78
2023-05-05T19:29:52.503Z,98936.97
2023-05-05T19:32:19.695Z,98928.59
2023-05-05T19:34:47.035Z,98926.94
2023-05-05T19:37:13.675Z,98929.75
2023-05-05T19:39:40.435Z,98927.06
2023-05-05T19:42:07.466Z,98925.25
2023-05-05T19:44:34.092Z,98934.09
2023-05-05T19:47:00.767Z,98936.28
2023-05-05T19:49:27.464Z,98930.09
2023-05-05T19:51:54.388Z,98928.59
2023-05-05T19:54:21.435Z,98921.47
2023-05-05T19:56:48.106Z,98919.59
2023-05-05T19:59:14.772Z,98917.72
2023-05-05T20:01:41.639Z,98926.22
2023-05-05T20:04:08.671Z,98923.28
2023-05-05T20:06:36.358Z,98914.44
2023-05-05T20:09:03.997Z,98922.31
2023-05-05T20:11:31.226Z,98924.13
2023-05-05T20:13:58.501Z,98924.13
2023-05-05T20:16:25.540Z,98922.47
2023-05-05T20:18:52.412Z,98916.28
2023-05-05T20:21:19.116Z,98920.78
2023-05-05T20:23:46.333Z,98924.78
2023-05-05T20:26:13.598Z,98926.44
2023-05-05T20:28:43.317Z,98921.94
2023-05-05T20:31:12.112Z,98911.41
2023-05-05T20:33:38.801Z,98911.56
2023-05-05T20:36:05.791Z,98908.06
2023-05-05T20:38:32.382Z,98911.06
2023-05-05T20:40:59.595Z,98907.69
2023-05-05T20:43:26.321Z,98910.38
2023-05-05T20:45:53.126Z,98905.50
2023-05-05T20:48:19.795Z,98899.63
2023-05-05T20:50:46.452Z,98904.31
2023-05-05T20:53:16.145Z,98899.13
2023-05-05T20:55:42.816Z,98893.94
2023-05-05T20:58:09.585Z,98902.94
2023-05-05T21:00:36.317Z,98899.75
2023-05-05T21:03:03.095Z,98910.22
2023-05-05T21:05:31.695Z,98920.38
2023-05-05T21:08:00.481Z,98917.50
2023-05-05T21:10:28.851Z,98914.88
2023-05-05T21:12:55.468Z,98912.31
2023-05-05T21:15:22.092Z,98908.81
2023-05-05T21:17:48.847Z,98910.50
2023-05-05T21:20:16.476Z,98920.00
2023-05-05T21:22:43.195Z,98920.84
2023-05-05T21:25:18.647Z,98929.69
2023-05-05T21:27:46.542Z,98925.25
2023-05-05T21:30:13.695Z,98925.59
2023-05-05T21:32:41.352Z,98923.22
2023-05-05T21:35:09.248Z,98925.72
2023-05-05T21:37:39.672Z,98918.09
2023-05-05T21:40:10.999Z,98926.66
2023-05-05T21:42:37.938Z,98929.00
2023-05-05T21:45:05.074Z,98929.84
2023-05-05T21:47:31.763Z,98927.84
2023-05-05T21:49:59.119Z,98930.53
2023-05-05T21:52:25.833Z,98926.88
2023-05-05T21:54:52.458Z,98928.00
2023-05-05T21:57:19.077Z,98931.50
2023-05-05T21:59:45.819Z,98935.63
2023-05-05T22:02:12.521Z,98932.59
2023-05-05T22:04:39.249Z,98927.25
2023-05-05T22:07:05.923Z,98927.19
2023-05-05T22:09:32.554Z,98918.06
2023-05-05T22:11:59.167Z,98917.88
2023-05-05T22:14:25.885Z,98925.72
2023-05-05T22:16:52.571Z,98923.31
2023-05-05T22:19:19.140Z,98933.28
2023-05-05T22:21:45.836Z,98926.72
2023-05-05T22:24:12.504Z,98932.38
2023-05-05T22:26:43.274Z,98925.06
2023-05-05T22:29:11.225Z,98937.53
2023-05-05T22:31:38.153Z,98945.31
2023-05-05T22:34:04.959Z,98955.22
2023-05-05T22:36:31.836Z,98951.84
2023-05-05T22:38:58.650Z,98955.81
2023-05-05T22:41:25.678Z,98950.31
2023-05-05T22:43:52.323Z,98943.91
2023-05-05T22:46:18.957Z,98943.59
2023-05-05T22:48:46.121Z,98924.38
2023-05-05T22:51:13.560Z,98917.13
2023-05-05T22:53:40.242Z,98916.81
2023-05-05T22:56:07.192Z,98917.75
2023-05-05T22:58:33.851Z,98916.28
2023-05-05T23:01:00.526Z,98907.63
2023-05-05T23:03:27.169Z,98914.06
2023-05-05T23:05:53.765Z,98911.72
2023-05-05T23:08:20.562Z,98919.69
2023-05-05T23:10:47.263Z,98918.69
2023-05-05T23:13:13.885Z,98915.59
2023-05-05T23:15:41.228Z,98913.16
2023-05-05T23:18:08.055Z,98913.72
2023-05-05T23:20:34.870Z,98917.38
2023-05-05T23:23:01.452Z,98922.00
2023-05-05T23:25:28.215Z,98917.97
2023-05-05T23:27:54.788Z,98923.56
2023-05-05T23:30:21.550Z,98916.19
2023-05-05T23:32:48.189Z,98926.13
2023-05-05T23:35:15.031Z,98923.59
2023-05-05T23:37:41.638Z,98926.41
2023-05-05T23:40:09.191Z,98924.44
2023-05-05T23:42:35.767Z,98913.09
2023-05-05T23:45:02.365Z,98919.97
2023-05-05T23:47:28.983Z,98918.84
2023-05-05T23:49:55.605Z,98921.06
2023-05-05T23:52:22.624Z,98916.06
2023-05-05T23:54:49.256Z,98908.34
2023-05-05T23:57:16.116Z,98916.66
2023-05-05T23:59:42.798Z,98913.28
